Terminal Aerodrome Forecast
Issued by NWS Twin Cities, MN

Home | Current Version | Previous Version | Graphics & Text | Print | Product List | Glossary On
Versions: 1 2 3 4 5 6 7 8 9 10 11 12 13 14 15 16 17
000
FTUS43 KMPX 262344
TAFSTC
TAF
KSTC 262344Z 2700/2724 33012G20KT P6SM BKN035 OVC050
     FM270200 32008KT P6SM OVC025
     FM271500 VRB03KT P6SM FEW015 SCT100 BKN250
     FM271800 15005KT P6SM BKN250=

USA.gov is the U.S. government's official web portal to all federal, state and local government web resources and services.